Nearby METAR Reports

 

KHOB - Hobbs, New Mexico, USA
Distance from station: S 40mi, 65km
Updated: Thu, 01-Oct-2020 5:50am MDT
Clear
Clear
 Wind from NNW
Wind: NNW 6 mph , 9 km/h
Temperature: 50°F , 10°C
Wind Chill: 48°F , 9°C
Dew Point: 25°F , -4°C
Humidity: 37%
Barometer: 30.22 inHg , 1023.4 hPa
Clouds: Clear
Visibility: 10 miles , 16 km
2020/10/01 11:50 KHOB 011150Z 33005KT 10SM SKC 10/M04 A3022
KGNC - Seminole, Texas, USA
Distance from station: SE 55mi, 89km
Updated: Thu, 01-Oct-2020 6:15am MDT
Clear
Clear
 Wind from calm
Wind: Calm
Temperature: 50°F , 10°C
Dew Point: 30°F , -1°C
Humidity: 47%
Barometer: 30.27 inHg , 1025.1 hPa
Clouds: Clear
Visibility: 10 miles , 16 km
2020/10/01 12:15 KGNC 011215Z AUTO 00000KT 10SM CLR 10/M01 A3027 RMK AO2 T01011010
 
KROW - Roswell, New Mexico, USA
Distance from station: W 67mi, 108km
Updated: Thu, 01-Oct-2020 5:51am MDT
Clear
Clear
 Wind from NNW
Wind: NNW 8 mph , 13 km/h
Temperature: 55°F , 13°C
Dew Point: 25°F , -4°C
Humidity: 31%
Barometer: 30.24 inHg , 1024 hPa
Clouds: Clear
Visibility: 10 miles , 16 km
2020/10/01 11:51 KROW 011151Z 34007KT 10SM CLR 13/M04 A3024 RMK AO2 SLP181 T01281039 10206 20128 53018
KATS - Artesia, New Mexico, USA
Distance from station: WSW 71mi, 114km
Updated: Thu, 01-Oct-2020 6:15am MDT
Clear
Clear
 Wind from NW
Wind: NW 10 mph , 17 km/h
Temperature: 50°F , 10°C
Wind Chill: 46°F , 8°C
Dew Point: 19°F , -7°C
Humidity: 30%
Barometer: 30.25 inHg , 1024.4 hPa
Clouds: Clear
Visibility: 10 miles , 16 km
2020/10/01 12:15 KATS 011215Z AUTO 32009KT 10SM CLR 10/M07 A3025 RMK AO2
 
KCVS - Cannon AFB,Clovis, New Mexico, USA
Distance from station: 0 78mi, 125km
Updated: Thu, 01-Oct-2020 5:56am MDT
Clear
Clear
 Wind from ENE
Wind: ENE 13 mph , 20 km/h
Temperature: 54°F , 12°C
Dew Point: 39°F , 4°C
Humidity: 58%
Barometer: 30.30 inHg , 1026.1 hPa
Clouds: Clear
Visibility: 10 miles , 16 km
2020/10/01 11:56 KCVS 011156Z AUTO 06011KT 10SM CLR 12/04 A3030 RMK AO2 SLP210 T01170044 10164 20106 52013 $
KE11 - Andrews, Texas, USA
Distance from station: SE 78mi, 126km
Updated: Thu, 01-Oct-2020 6:15am MDT
Clear
Clear
 Wind from NNW
Wind: NNW 5 mph , 7 km/h
Temperature: 48°F , 9°C
Wind Chill: 46°F , 8°C
Dew Point: 27°F , -3°C
Humidity: 43%
Barometer: 30.23 inHg , 1023.7 hPa
Clouds: Clear
Visibility: 10 miles , 16 km
2020/10/01 12:15 KE11 011215Z AUTO 33004KT 10SM CLR 09/M03 A3023 RMK AO2 T00941030
 
KCNM - Carlsbad, New Mexico, USA
Distance from station: SW 82mi, 132km
Updated: Thu, 01-Oct-2020 5:53am MDT
Clear
Clear
 Wind from NNW
Wind: NNW 5 mph , 7 km/h
Temperature: 50°F , 10°C
Wind Chill: 48°F , 9°C
Dew Point: 21°F , -6°C
Humidity: 32%
Barometer: 30.19 inHg , 1022.4 hPa
Clouds: Clear
Visibility: 10 miles , 16 km
2020/10/01 11:53 KCNM 011153Z AUTO 34004KT 10SM CLR 10/M06 A3019 RMK AO2 SLP180 T01001056 10183 20100 53009
KCVN - Clovis Muni, New Mexico, USA
Distance from station: N 83mi, 133km
Updated: Thu, 01-Oct-2020 5:56am MDT
Clear
Clear
 Wind from ENE
Wind: ENE 9 mph , 15 km/h
Temperature: 48°F , 9°C
Wind Chill: 44°F , 7°C
Dew Point: 39°F , 4°C
Humidity: 71%
Barometer: 30.31 inHg , 1026.4 hPa
Clouds: Clear
Visibility: 10 miles , 16 km
2020/10/01 11:56 KCVN 011156Z AUTO 06008KT 10SM CLR 09/04 A3031 RMK AO2 SLP232 T00890039 10156 20089 53013
 
KLBB - Lubbock, Texas, USA
Distance from station: ENE 92mi, 149km
Updated: Thu, 01-Oct-2020 5:53am MDT
Clear
Clear
 Wind from ENE
Wind: ENE 13 mph , 20 km/h
Temperature: 54°F , 12°C
Dew Point: 43°F , 6°C
Humidity: 67%
Barometer: 30.25 inHg , 1024.4 hPa
Clouds: Clear
Visibility: 10 miles , 16 km
2020/10/01 11:53 KLBB 011153Z 06011KT 10SM CLR 12/06 A3025 RMK AO2 SLP201 T01220056 10194 20117 53013 $
KINK - Wink, Texas, USA
Distance from station: S 101mi, 163km
Updated: Thu, 01-Oct-2020 5:53am MDT
Clear
Clear
 Wind from ENE
Wind: ENE 6 mph , 9 km/h
Temperature: 54°F , 12°C
Dew Point: 30°F , -1°C
Humidity: 41%
Barometer: 30.16 inHg , 1021.3 hPa
Clouds: Clear
Visibility: 10 miles , 16 km
2020/10/01 11:53 KINK 011153Z AUTO 07005KT 10SM CLR 12/M01 A3016 RMK AO2 SLP178 T01221006 10189 20111 53007
 
KMAF - Midland, Texas, USA
Distance from station: SE 111mi, 179km
Updated: Thu, 01-Oct-2020 5:53am MDT
Clear
Clear
 Wind from N
Wind: N 5 mph , 7 km/h
Temperature: 50°F , 10°C
Wind Chill: 48°F , 9°C
Dew Point: 28°F , -2°C
Humidity: 43%
Barometer: 30.18 inHg , 1022 hPa
Clouds: Clear
Visibility: 10 miles , 16 km
2020/10/01 11:53 KMAF 011153Z 01004KT 10SM CLR 10/M02 A3018 RMK AO2 SLP187 T01001017 10189 20100 53009 $
KSRR - Sierra B/Ruidoso, New Mexico, USA
Distance from station: W 127mi, 204km
Updated: Thu, 01-Oct-2020 6:15am MDT
Clear
Clear
 Wind from WNW
Wind: WNW 8 mph , 13 km/h
Temperature: 50°F , 10°C
Wind Chill: 47°F , 8°C
Dew Point: 19°F , -7°C
Humidity: 30%
Barometer: 30.41 inHg , 1029.8 hPa
Clouds: Clear
Visibility: 10 miles , 16 km
2020/10/01 12:15 KSRR 011215Z AUTO 29007KT 10SM CLR 10/M07 A3041 RMK AO2
 
KGDP - Guadalupe Pass, Texas, USA
Distance from station: SW 130mi, 209km
Updated: Thu, 01-Oct-2020 5:51am MDT
Clear
Clear
 Wind from NE
Wind: NE 15 mph , 24 km/h
Temperature: 64°F , 18°C
Dew Point: 21°F , -6°C
Humidity: 19%
Barometer: 30.29 inHg , 1025.7 hPa
Clouds: Clear
Visibility: 10 miles , 16 km
2020/10/01 11:51 KGDP 011151Z AUTO 05013KT 10SM CLR 18/M06 A3029 RMK AO2 SLP174 T01831056 10200 20178 53003